createdAt,value
2018-09-08T00:00:28.517Z,4.90
2018-09-08T00:02:56.565Z,5.40
2018-09-08T00:05:24.736Z,5.40
2018-09-08T00:07:52.789Z,6.35
2018-09-08T00:10:20.824Z,5.37
2018-09-08T00:12:48.856Z,4.78
2018-09-08T00:15:22.382Z,6.03
2018-09-08T00:17:55.896Z,3.90
2018-09-08T00:20:29.492Z,3.98
2018-09-08T00:23:03.092Z,7.40
2018-09-08T00:25:36.623Z,8.73
2018-09-08T00:28:08.108Z,6.10
2018-09-08T00:30:36.140Z,5.10
2018-09-08T00:33:04.179Z,4.20
2018-09-08T00:35:32.207Z,4.17
2018-09-08T00:38:00.387Z,4.65
2018-09-08T00:40:28.413Z,4.60
2018-09-08T00:42:56.457Z,5.10
2018-09-08T00:45:24.492Z,4.90
2018-09-08T00:47:52.663Z,6.30
2018-09-08T00:50:21.056Z,4.83
2018-09-08T00:52:49.104Z,6.60
2018-09-08T00:55:17.380Z,5.20
2018-09-08T00:57:45.428Z,5.35
2018-09-08T01:00:13.473Z,5.07
2018-09-08T01:02:41.512Z,5.28
2018-09-08T01:05:09.566Z,4.33
2018-09-08T01:07:37.600Z,4.10
2018-09-08T01:10:05.629Z,3.98
2018-09-08T01:12:33.664Z,3.90
2018-09-08T01:15:02.046Z,3.60
2018-09-08T01:17:30.092Z,4.60
2018-09-08T01:19:58.141Z,5.30
2018-09-08T01:22:27.166Z,2.97
2018-09-08T01:24:55.172Z,4.97
2018-09-08T01:27:23.249Z,4.22
2018-09-08T01:29:51.304Z,3.72
2018-09-08T01:32:19.341Z,2.98
2018-09-08T01:34:47.376Z,3.55
2018-09-08T01:37:15.424Z,3.15
2018-09-08T01:39:43.443Z,2.85
2018-09-08T01:42:11.496Z,3.77
2018-09-08T01:44:39.584Z,3.10
2018-09-08T01:47:07.603Z,4.05
2018-09-08T01:49:35.874Z,4.00
2018-09-08T01:52:04.035Z,4.80
2018-09-08T01:54:32.212Z,3.33
2018-09-08T01:57:00.229Z,4.65
2018-09-08T01:59:28.248Z,5.37
2018-09-08T02:01:56.341Z,4.53
2018-09-08T02:04:24.384Z,3.15
2018-09-08T02:06:52.417Z,5.55
2018-09-08T02:09:20.476Z,3.77
2018-09-08T02:11:48.508Z,4.22
2018-09-08T02:14:16.572Z,2.60
2018-09-08T02:16:44.629Z,3.60
2018-09-08T02:19:12.655Z,3.65
2018-09-08T02:21:40.703Z,4.35
2018-09-08T02:24:08.763Z,4.55
2018-09-08T02:26:36.792Z,2.72
2018-09-08T02:29:04.816Z,4.50
2018-09-08T02:31:32.866Z,3.67
2018-09-08T02:34:01.195Z,3.37
2018-09-08T02:36:29.207Z,5.03
2018-09-08T02:38:57.252Z,3.60
2018-09-08T02:41:25.280Z,3.70
2018-09-08T02:43:53.318Z,4.60
2018-09-08T02:46:21.356Z,3.58
2018-09-08T02:48:49.464Z,5.17
2018-09-08T02:51:16.601Z,3.25
2018-09-08T02:53:43.748Z,3.50
2018-09-08T02:56:10.872Z,3.72
2018-09-08T02:58:38.024Z,4.60
2018-09-08T03:01:05.156Z,6.45
2018-09-08T03:03:32.292Z,5.12
2018-09-08T03:05:59.431Z,4.90
2018-09-08T03:08:26.569Z,4.87
2018-09-08T03:10:53.692Z,4.50
2018-09-08T03:13:20.836Z,4.53
2018-09-08T03:15:47.960Z,9.18
2018-09-08T03:18:15.098Z,4.90
2018-09-08T03:20:42.240Z,4.95
2018-09-08T03:23:09.372Z,5.67
2018-09-08T03:25:36.505Z,4.37
2018-09-08T03:28:03.640Z,4.10
2018-09-08T03:30:30.791Z,5.47
2018-09-08T03:32:57.924Z,4.10
2018-09-08T03:35:25.056Z,4.60
2018-09-08T03:37:52.208Z,5.28
2018-09-08T03:40:19.328Z,6.30
2018-09-08T03:42:46.472Z,6.10
2018-09-08T03:45:13.604Z,4.85
2018-09-08T03:47:40.740Z,4.83
2018-09-08T03:50:07.888Z,5.83
2018-09-08T03:52:35.021Z,6.80
2018-09-08T03:55:02.188Z,6.03
2018-09-08T03:57:29.320Z,5.27
2018-09-08T03:59:56.472Z,5.80
2018-09-08T04:02:23.600Z,8.53
2018-09-08T04:04:51.640Z,6.20
2018-09-08T04:07:19.686Z,7.00
2018-09-08T04:09:47.733Z,6.83
2018-09-08T04:12:15.788Z,6.75
2018-09-08T04:14:43.836Z,6.67
2018-09-08T04:17:11.892Z,8.10
2018-09-08T04:19:39.947Z,7.72
2018-09-08T04:22:07.976Z,7.70
2018-09-08T04:24:36.003Z,6.40
2018-09-08T04:27:04.039Z,6.50
2018-09-08T04:29:32.089Z,6.75
2018-09-08T04:32:00.096Z,8.18
2018-09-08T04:34:28.154Z,7.12
2018-09-08T04:36:56.173Z,6.60
2018-09-08T04:39:24.210Z,7.10
2018-09-08T04:41:52.249Z,7.95
2018-09-08T04:44:20.285Z,8.13
2018-09-08T04:46:48.364Z,8.85
2018-09-08T04:49:16.448Z,7.47
2018-09-08T04:51:44.476Z,7.43
2018-09-08T04:54:12.541Z,8.45
2018-09-08T04:56:40.580Z,8.15
2018-09-08T04:59:08.617Z,7.85
2018-09-08T05:01:36.626Z,7.65
2018-09-08T05:04:04.657Z,7.60
2018-09-08T05:06:32.660Z,7.60
2018-09-08T05:09:00.694Z,7.80
2018-09-08T05:11:28.687Z,7.50
2018-09-08T05:13:56.693Z,8.20
2018-09-08T05:16:24.688Z,8.50
2018-09-08T05:18:52.726Z,9.33
2018-09-08T05:21:20.756Z,10.95
2018-09-08T05:23:48.744Z,8.05
2018-09-08T05:26:16.786Z,8.50
2018-09-08T05:28:44.870Z,8.15
2018-09-08T05:31:12.908Z,8.65
2018-09-08T05:33:40.939Z,8.43
2018-09-08T05:36:08.986Z,9.55
2018-09-08T05:38:37.028Z,8.50
2018-09-08T05:41:05.364Z,8.93
2018-09-08T05:43:33.502Z,9.98
2018-09-08T05:46:01.581Z,10.50
2018-09-08T05:48:29.615Z,10.70
2018-09-08T05:50:57.636Z,10.50
2018-09-08T05:53:25.692Z,9.15
2018-09-08T05:55:53.733Z,9.08
2018-09-08T05:58:21.821Z,7.80
2018-09-08T06:00:49.817Z,8.60
2018-09-08T06:03:17.859Z,7.77
2018-09-08T06:05:45.920Z,7.70
2018-09-08T06:08:13.972Z,8.70
2018-09-08T06:10:42.008Z,9.03
2018-09-08T06:13:10.049Z,8.15
2018-09-08T06:15:38.079Z,8.23
2018-09-08T06:18:06.139Z,7.30
2018-09-08T06:20:34.164Z,7.70
2018-09-08T06:23:02.208Z,8.55
2018-09-08T06:25:30.246Z,8.08
2018-09-08T06:27:58.992Z,8.93
2018-09-08T06:30:27.070Z,8.10
2018-09-08T06:32:55.092Z,8.15
2018-09-08T06:35:23.222Z,7.90
2018-09-08T06:37:51.168Z,8.60
2018-09-08T06:40:19.221Z,10.30
2018-09-08T06:42:47.254Z,8.80
2018-09-08T06:45:15.316Z,10.95
2018-09-08T06:47:43.349Z,8.70
2018-09-08T06:50:11.390Z,13.68
2018-09-08T06:52:39.432Z,9.28
2018-09-08T06:55:07.507Z,8.80
2018-09-08T06:57:35.548Z,9.03
2018-09-08T07:00:04.062Z,10.00
2018-09-08T07:02:32.120Z,8.95
2018-09-08T07:05:00.207Z,9.25
2018-09-08T07:07:28.276Z,8.60
2018-09-08T07:09:56.308Z,9.10
2018-09-08T07:12:24.372Z,8.35
2018-09-08T07:14:52.412Z,8.20
2018-09-08T07:17:20.447Z,9.90
2018-09-08T07:19:48.501Z,7.90
2018-09-08T07:22:16.534Z,7.95
2018-09-08T07:24:44.654Z,7.83
2018-09-08T07:27:12.640Z,7.80
2018-09-08T07:29:40.748Z,8.45
2018-09-08T07:32:08.819Z,8.70
2018-09-08T07:34:36.918Z,7.97
2018-09-08T07:37:05.004Z,8.08
2018-09-08T07:39:33.089Z,12.98
2018-09-08T07:42:01.171Z,10.85
2018-09-08T07:44:29.217Z,21.35
2018-09-08T07:46:57.279Z,18.73
2018-09-08T07:49:25.309Z,16.30
2018-09-08T07:51:53.365Z,10.75
2018-09-08T07:54:21.393Z,9.45
2018-09-08T07:56:49.458Z,8.68
2018-09-08T07:59:17.582Z,7.95
2018-09-08T08:01:45.556Z,7.20
2018-09-08T08:04:13.817Z,7.53
2018-09-08T08:06:41.863Z,8.80
2018-09-08T08:09:10.085Z,11.73
2018-09-08T08:11:38.133Z,7.72
2018-09-08T08:14:06.280Z,9.50
2018-09-08T08:16:34.513Z,11.10
2018-09-08T08:19:02.727Z,8.05
2018-09-08T08:21:30.865Z,7.72
2018-09-08T08:23:59.032Z,7.60
2018-09-08T08:26:27.065Z,7.42
2018-09-08T08:28:55.223Z,9.25
2018-09-08T08:31:23.252Z,7.72
2018-09-08T08:33:51.295Z,7.80
2018-09-08T08:36:19.320Z,7.20
2018-09-08T08:38:47.360Z,7.87
2018-09-08T08:41:15.409Z,7.87
2018-09-08T08:43:43.455Z,7.40
2018-09-08T08:46:11.522Z,7.78
2018-09-08T08:48:39.605Z,7.60
2018-09-08T08:51:18.899Z,8.38
2018-09-08T08:53:58.500Z,9.58
2018-09-08T08:56:26.559Z,9.67
2018-09-08T08:58:54.641Z,7.33
2018-09-08T09:01:22.678Z,7.15
2018-09-08T09:03:50.714Z,7.47
2018-09-08T09:06:18.729Z,7.70
2018-09-08T09:08:47.009Z,8.53
2018-09-08T09:11:14.796Z,6.90
2018-09-08T09:13:42.867Z,6.00
2018-09-08T09:16:10.917Z,6.75
2018-09-08T09:18:50.929Z,8.13
2018-09-08T09:21:29.983Z,7.37
2018-09-08T09:25:06.781Z,7.05
2018-09-08T09:27:52.000Z,7.00
2018-09-08T09:30:20.780Z,9.85
2018-09-08T09:32:48.821Z,8.38
2018-09-08T09:35:18.226Z,9.13
2018-09-08T09:37:46.277Z,8.93
2018-09-08T09:40:15.487Z,6.80
2018-09-08T09:42:43.533Z,6.80
2018-09-08T09:45:11.952Z,7.20
2018-09-08T09:47:40.018Z,6.42
2018-09-08T09:50:09.312Z,7.47
2018-09-08T09:52:37.530Z,6.80
2018-09-08T09:55:05.565Z,6.40
2018-09-08T09:57:33.736Z,6.08
2018-09-08T10:00:01.756Z,6.37
2018-09-08T10:02:39.108Z,5.83
2018-09-08T10:05:09.008Z,8.18
2018-09-08T10:07:37.032Z,5.30
2018-09-08T10:10:05.616Z,6.58
2018-09-08T10:12:33.712Z,5.60
2018-09-08T10:15:01.709Z,6.40
2018-09-08T10:17:29.724Z,7.00
2018-09-08T10:19:57.764Z,6.53
2018-09-08T10:22:25.789Z,4.95
2018-09-08T10:24:53.859Z,5.20
2018-09-08T10:27:22.060Z,5.10
2018-09-08T10:29:51.451Z,4.70
2018-09-08T10:32:19.283Z,4.47
2018-09-08T10:34:47.129Z,4.65
2018-09-08T10:37:15.572Z,6.80
2018-09-08T10:39:43.608Z,4.08
2018-09-08T10:42:11.805Z,4.20
2018-09-08T10:44:39.848Z,5.10
2018-09-08T10:47:08.129Z,5.17
2018-09-08T10:49:36.198Z,4.50
2018-09-08T10:52:15.749Z,5.28
2018-09-08T10:54:43.969Z,4.35
2018-09-08T10:57:11.984Z,3.55
2018-09-08T10:59:40.036Z,4.83
2018-09-08T11:02:08.259Z,7.47
2018-09-08T11:04:36.102Z,4.20
2018-09-08T11:07:04.157Z,5.40
2018-09-08T11:09:32.204Z,8.03
2018-09-08T11:12:00.234Z,4.00
2018-09-08T11:14:28.273Z,3.17
2018-09-08T11:16:56.305Z,3.12
2018-09-08T11:19:24.588Z,3.60
2018-09-08T11:21:52.612Z,3.50
2018-09-08T11:24:20.683Z,5.30
2018-09-08T11:26:48.732Z,4.90
2018-09-08T11:29:16.783Z,5.90
2018-09-08T11:31:45.054Z,5.72
2018-09-08T11:34:13.114Z,5.58
2018-09-08T11:36:41.160Z,4.83
2018-09-08T11:39:09.292Z,4.33
2018-09-08T11:41:37.906Z,4.10
2018-09-08T11:44:05.947Z,4.58
2018-09-08T11:46:34.352Z,4.00
2018-09-08T11:49:02.395Z,4.00
2018-09-08T11:51:30.601Z,3.95
2018-09-08T11:53:58.680Z,4.15
2018-09-08T11:56:26.717Z,3.70
2018-09-08T11:58:54.820Z,4.28
2018-09-08T12:01:22.868Z,3.70
2018-09-08T12:03:50.931Z,5.50
2018-09-08T12:06:19.023Z,3.72
2018-09-08T12:08:47.002Z,3.50
2018-09-08T12:11:15.029Z,4.33
2018-09-08T12:13:43.100Z,4.53
2018-09-08T12:16:11.109Z,3.87
2018-09-08T12:18:39.156Z,4.45
2018-09-08T12:21:07.213Z,3.90
2018-09-08T12:23:35.304Z,3.52
2018-09-08T12:26:03.339Z,3.65
2018-09-08T12:28:31.356Z,3.47
2018-09-08T12:30:59.438Z,3.60
2018-09-08T12:33:27.444Z,4.42
2018-09-08T12:35:55.470Z,4.47
2018-09-08T12:38:23.631Z,3.05
2018-09-08T12:40:51.649Z,4.03
2018-09-08T12:43:19.672Z,3.52
2018-09-08T12:45:47.735Z,4.30
2018-09-08T12:48:15.708Z,5.20
2018-09-08T12:50:43.744Z,3.83
2018-09-08T12:53:11.774Z,2.90
2018-09-08T12:55:39.767Z,3.10
2018-09-08T12:58:07.900Z,3.25
2018-09-08T13:00:36.172Z,2.50
2018-09-08T13:03:04.229Z,3.42
2018-09-08T13:05:32.254Z,3.00
2018-09-08T13:08:00.265Z,3.87
2018-09-08T13:10:28.294Z,3.83
2018-09-08T13:12:56.321Z,4.00
2018-09-08T13:15:24.492Z,3.75
2018-09-08T13:17:52.620Z,5.45
2018-09-08T13:20:20.664Z,3.20
2018-09-08T13:22:48.793Z,3.65
2018-09-08T13:25:16.847Z,3.10
2018-09-08T13:27:45.163Z,3.08
2018-09-08T13:30:13.229Z,5.30
2018-09-08T13:32:41.264Z,4.58
2018-09-08T13:35:09.334Z,3.95
2018-09-08T13:37:37.368Z,3.37
2018-09-08T13:40:05.492Z,4.30
2018-09-08T13:42:33.521Z,5.03
2018-09-08T13:45:01.549Z,3.87
2018-09-08T13:47:29.616Z,4.45
2018-09-08T13:49:57.788Z,4.15
2018-09-08T13:52:25.822Z,5.03
2018-09-08T13:54:53.868Z,6.70
2018-09-08T13:57:21.949Z,5.20
2018-09-08T13:59:49.974Z,5.20
2018-09-08T14:02:18.163Z,4.40
2018-09-08T14:04:46.206Z,3.85
2018-09-08T14:07:14.257Z,3.85
2018-09-08T14:09:42.313Z,6.08
2018-09-08T14:12:10.351Z,4.33
2018-09-08T14:14:38.381Z,5.17
2018-09-08T14:17:06.908Z,4.58
2018-09-08T14:19:34.929Z,3.80
2018-09-08T14:22:02.966Z,3.80
2018-09-08T14:24:30.987Z,4.22
2018-09-08T14:26:59.016Z,4.10
2018-09-08T14:29:27.050Z,4.70
2018-09-08T14:31:55.090Z,4.75
2018-09-08T14:34:23.143Z,4.35
2018-09-08T14:36:51.262Z,4.40
2018-09-08T14:39:19.221Z,3.35
2018-09-08T14:41:47.268Z,4.60
2018-09-08T14:44:15.303Z,3.87
2018-09-08T14:46:43.377Z,4.75
2018-09-08T14:49:11.589Z,3.80
2018-09-08T14:51:39.725Z,5.17
2018-09-08T14:54:07.761Z,4.08
2018-09-08T14:56:35.851Z,4.75
2018-09-08T14:59:03.858Z,4.30
2018-09-08T15:01:31.895Z,4.92
2018-09-08T15:03:59.938Z,4.50
2018-09-08T15:06:27.984Z,5.25
2018-09-08T15:08:56.035Z,4.97
2018-09-08T15:11:24.080Z,4.00
2018-09-08T15:13:52.103Z,4.20
2018-09-08T15:16:20.132Z,4.42
2018-09-08T15:18:48.161Z,6.37
2018-09-08T15:21:16.188Z,6.37
2018-09-08T15:23:44.236Z,4.47
2018-09-08T15:26:12.254Z,4.62
2018-09-08T15:28:40.283Z,5.53
2018-09-08T15:31:08.302Z,4.62
2018-09-08T15:33:36.336Z,6.20
2018-09-08T15:36:04.377Z,5.10
2018-09-08T15:38:32.433Z,6.58
2018-09-08T15:41:00.466Z,4.72
2018-09-08T15:43:28.510Z,3.60
2018-09-08T15:45:56.560Z,4.80
2018-09-08T15:48:24.589Z,5.03
2018-09-08T15:50:52.718Z,6.90
2018-09-08T15:53:20.744Z,6.30
2018-09-08T15:55:48.790Z,6.67
2018-09-08T15:58:16.895Z,5.92
2018-09-08T16:00:44.894Z,6.40
2018-09-08T16:03:12.920Z,5.92
2018-09-08T16:05:40.936Z,6.80
2018-09-08T16:08:09.091Z,3.97
2018-09-08T16:10:37.920Z,6.08
2018-09-08T16:13:07.028Z,4.92
2018-09-08T16:15:35.308Z,5.10
2018-09-08T16:18:03.356Z,3.77
2018-09-08T16:20:31.376Z,4.10
2018-09-08T16:22:59.404Z,5.15
2018-09-08T16:25:27.577Z,5.70
2018-09-08T16:27:55.769Z,6.00
2018-09-08T16:30:23.817Z,6.70
2018-09-08T16:32:52.073Z,8.88
2018-09-08T16:35:20.111Z,9.13
2018-09-08T16:37:48.148Z,7.05
2018-09-08T16:40:16.133Z,6.50
2018-09-08T16:42:44.145Z,4.22
2018-09-08T16:45:12.183Z,6.80
2018-09-08T16:47:40.187Z,7.60
2018-09-08T16:50:08.447Z,6.40
2018-09-08T16:52:36.318Z,7.15
2018-09-08T16:55:04.339Z,7.07
2018-09-08T16:57:32.360Z,6.45
2018-09-08T17:00:00.429Z,6.17
2018-09-08T17:02:28.491Z,8.70
2018-09-08T17:04:56.573Z,7.92
2018-09-08T17:07:24.557Z,6.20
2018-09-08T17:09:52.556Z,7.60
2018-09-08T17:12:20.606Z,4.77
2018-09-08T17:14:48.633Z,4.90
2018-09-08T17:17:16.656Z,5.20
2018-09-08T17:19:44.672Z,5.00
2018-09-08T17:22:12.699Z,7.05
2018-09-08T17:24:40.720Z,7.35
2018-09-08T17:27:08.752Z,6.40
2018-09-08T17:29:36.764Z,5.92
2018-09-08T17:32:04.772Z,6.17
2018-09-08T17:34:32.820Z,18.07
2018-09-08T17:37:00.853Z,7.15
2018-09-08T17:39:28.896Z,5.80
2018-09-08T17:41:56.912Z,5.87
2018-09-08T17:44:24.958Z,7.50
2018-09-08T17:46:52.969Z,13.15
2018-09-08T17:49:21.003Z,8.00
2018-09-08T17:51:49.049Z,7.85
2018-09-08T17:54:17.082Z,7.87
2018-09-08T17:56:45.136Z,11.70
2018-09-08T17:59:14.381Z,9.33
2018-09-08T18:01:42.392Z,8.40
2018-09-08T18:04:10.412Z,8.83
2018-09-08T18:06:38.436Z,14.78
2018-09-08T18:09:06.488Z,14.30
2018-09-08T18:11:34.536Z,11.68
2018-09-08T18:14:02.560Z,11.22
2018-09-08T18:16:30.634Z,12.23
2018-09-08T18:18:58.636Z,11.90
2018-09-08T18:21:26.661Z,8.65
2018-09-08T18:23:54.672Z,12.20
2018-09-08T18:26:22.849Z,11.35
2018-09-08T18:28:51.322Z,13.72
2018-09-08T18:31:19.366Z,10.90
2018-09-08T18:33:48.765Z,19.52
2018-09-08T18:36:16.879Z,20.70
2018-09-08T18:38:44.914Z,25.68
2018-09-08T18:41:12.970Z,28.45
2018-09-08T18:43:41.019Z,27.30
2018-09-08T18:46:09.132Z,23.32
2018-09-08T18:48:37.165Z,26.30
2018-09-08T18:51:05.205Z,20.27
2018-09-08T18:53:33.240Z,18.05
2018-09-08T18:56:01.306Z,16.70
2018-09-08T18:58:29.345Z,12.30
2018-09-08T19:00:57.385Z,11.78
2018-09-08T19:03:25.429Z,10.37
2018-09-08T19:05:54.422Z,10.43
2018-09-08T19:08:25.476Z,9.65
2018-09-08T19:10:53.532Z,10.03
2018-09-08T19:13:21.576Z,15.85
2018-09-08T19:15:49.647Z,13.43
2018-09-08T19:18:17.679Z,15.10
2018-09-08T19:20:45.725Z,14.33
2018-09-08T19:23:13.748Z,21.82
2018-09-08T19:25:41.819Z,24.40
2018-09-08T19:28:09.837Z,17.17
2018-09-08T19:30:37.858Z,10.10
2018-09-08T19:33:06.268Z,15.20
2018-09-08T19:35:36.184Z,20.15
2018-09-08T19:38:04.247Z,14.33
2018-09-08T19:40:37.839Z,13.25
2018-09-08T19:43:06.226Z,12.63
2018-09-08T19:45:34.532Z,12.10
2018-09-08T19:48:04.440Z,11.73
2018-09-08T19:50:32.828Z,14.75
2018-09-08T19:53:06.393Z,11.35
2018-09-08T19:55:34.432Z,12.20
2018-09-08T19:58:07.921Z,17.55
2018-09-08T20:00:35.962Z,11.50
2018-09-08T20:03:03.992Z,10.82
2018-09-08T20:05:32.038Z,9.08
2018-09-08T20:08:00.059Z,10.03
2018-09-08T20:10:28.113Z,9.35
2018-09-08T20:12:56.301Z,8.80
2018-09-08T20:15:24.639Z,9.50
2018-09-08T20:17:52.601Z,10.78
2018-09-08T20:20:20.617Z,9.85
2018-09-08T20:22:48.893Z,8.80
2018-09-08T20:25:16.908Z,10.18
2018-09-08T20:27:45.037Z,9.10
2018-09-08T20:30:13.059Z,10.05
2018-09-08T20:32:41.145Z,8.03
2018-09-08T20:35:09.284Z,7.35
2018-09-08T20:37:37.164Z,7.95
2018-09-08T20:40:05.644Z,7.90
2018-09-08T20:42:33.664Z,8.60
2018-09-08T20:45:01.658Z,7.78
2018-09-08T20:47:29.682Z,8.43
2018-09-08T20:49:57.700Z,9.15
2018-09-08T20:52:25.785Z,10.93
2018-09-08T20:54:53.800Z,10.05
2018-09-08T20:57:22.409Z,11.97
2018-09-08T20:59:51.107Z,11.68
2018-09-08T21:02:19.959Z,10.15
2018-09-08T21:04:48.225Z,10.60
2018-09-08T21:07:16.945Z,9.57
2018-09-08T21:09:45.437Z,7.00
2018-09-08T21:12:14.079Z,6.70
2018-09-08T21:14:43.058Z,8.00
2018-09-08T21:17:11.845Z,8.20
2018-09-08T21:19:40.785Z,12.00
2018-09-08T21:22:09.296Z,10.40
2018-09-08T21:24:37.828Z,11.90
2018-09-08T21:27:06.588Z,14.53
2018-09-08T21:29:35.693Z,15.08
2018-09-08T21:32:03.746Z,17.50
2018-09-08T21:34:31.795Z,16.00
2018-09-08T21:36:59.841Z,9.63
2018-09-08T21:39:27.913Z,10.50
2018-09-08T21:41:56.038Z,8.00
2018-09-08T21:44:23.976Z,7.10
2018-09-08T21:46:52.004Z,8.40
2018-09-08T21:49:20.032Z,8.30
2018-09-08T21:51:48.160Z,8.85
2018-09-08T21:54:16.191Z,12.47
2018-09-08T21:56:44.216Z,12.77
2018-09-08T21:59:12.232Z,9.90
2018-09-08T22:01:40.247Z,7.90
2018-09-08T22:04:08.299Z,9.40
2018-09-08T22:06:36.323Z,8.35
2018-09-08T22:09:07.131Z,8.90
2018-09-08T22:11:35.180Z,8.88
2018-09-08T22:14:03.221Z,9.37
2018-09-08T22:16:31.248Z,9.73
2018-09-08T22:18:59.290Z,9.68
2018-09-08T22:21:27.340Z,7.95
2018-09-08T22:23:55.371Z,7.97
2018-09-08T22:26:23.407Z,7.80
2018-09-08T22:28:51.450Z,8.45
2018-09-08T22:31:19.476Z,7.67
2018-09-08T22:33:47.528Z,10.53
2018-09-08T22:36:15.552Z,6.80
2018-09-08T22:38:43.594Z,7.13
2018-09-08T22:41:11.620Z,7.85
2018-09-08T22:43:39.661Z,8.85
2018-09-08T22:46:07.737Z,7.08
2018-09-08T22:48:35.760Z,8.53
2018-09-08T22:51:03.792Z,8.97
2018-09-08T22:53:31.822Z,10.13
2018-09-08T22:55:59.856Z,8.70
2018-09-08T22:58:27.912Z,8.40
2018-09-08T23:00:55.955Z,8.05
2018-09-08T23:03:23.967Z,11.40
2018-09-08T23:05:52.011Z,13.32
2018-09-08T23:08:20.041Z,16.80
2018-09-08T23:10:48.088Z,12.65
2018-09-08T23:13:16.120Z,10.72
2018-09-08T23:15:44.194Z,12.30
2018-09-08T23:18:12.228Z,16.82
2018-09-08T23:20:40.282Z,15.88
2018-09-08T23:23:08.323Z,12.07
2018-09-08T23:25:36.358Z,10.15
2018-09-08T23:28:04.425Z,10.00
2018-09-08T23:30:32.456Z,9.60
2018-09-08T23:33:00.480Z,9.23
2018-09-08T23:35:28.503Z,9.70
2018-09-08T23:37:56.537Z,9.50
2018-09-08T23:40:24.570Z,10.25
2018-09-08T23:42:52.591Z,10.18
2018-09-08T23:45:20.643Z,10.88
2018-09-08T23:47:48.676Z,10.35
2018-09-08T23:50:16.757Z,10.05
2018-09-08T23:52:44.733Z,10.90
2018-09-08T23:55:12.766Z,10.08
2018-09-08T23:57:40.850Z,9.58
